Athens, Greece

8:11 PM EEST on October 23, 2014 (GMT +0300)
Kalamaki - AirMar | Change Station
CLOSE
Current Station
Personal Weather Station
Location: Alimos, ATTICA
Elevation: 92 ft
Nearby Weather Stations

Elev 92 ft 37.92 °N, 23.71 °E | Updated 1 minute ago

Partly Cloudy
Partly Cloudy
65.3 °F
Feels Like 65.3 °F
N
5.0
Wind Variable Wind from South
Gusts 5.0 mph

Today
High -- | Low -- °F
--% Chance of Precip.
Yesterday
High -- | Low -- °F
Precip. -- in
7:41 AM 6:37 PM
Waning Crescent, 0% visible
Pressure 29.71 in
Visibility 6.2 miles
Clouds Few 2500 ft
Dew Point 43 °F
Humidity 44%
Rainfall 0.33 in
Snow Depth Not available.
UV 0 out of 12
Pollen Not available.
Air Quality Not available.
Flu Activity Not available.
METAR LGAV 231650Z 28015KT 9999 FEW025 17/03 Q1006 NOSIG

More Conditions Fewer Conditions

Pressure 29.71 in
Visibility 6.2 miles
Clouds Few 2500 ft
Dew Point 43 °F
Humidity 44%
Rainfall 0.33 in
Snow Depth Not available.
UV 0 out of 12
Pollen Not available.
Air Quality Not available.
Flu Activity Not available.
METAR LGAV 231650Z 28015KT 9999 FEW025 17/03 Q1006 NOSIG

More Conditions Fewer Conditions

10-Day Weather Forecast

Almanac

Astronomy

Oct. 23, 2014 Rise Set
Actual Time 7:41 AM EEST 6:37 PM EEST
Civil Twilight 7:14 AM EEST 7:03 PM EEST
Nautical Twilight 6:43 AM EEST 7:34 PM EEST
Astronomical Twilight 6:13 AM EEST 8:05 PM EEST
Moon 7:02 AM EEST 6:27 PM EEST
Length of Visible Light 11h 49m
Length of Day
10h 56m
Tomorrow will be 2m 17s shorter.
Waning Crescent, 0% of the Moon is Illuminated
Today
Waning Crescent
Oct 23
New
Oct 30
First Quarter
Nov 6
Full
Nov 14
Last Quarter

Today's Extremes

Country Highs Country Lows

Community

WunderPhotos

Upload Photos

1,764,316 photos uploaded!

WunderBlogs® & News

Nearby

Snow Depth

Not available.

Earthquake Activity

City Distance Mag. Time & Date
No recent earthquake activity has been reported nearby.
Minimum magnitude displayed is 2.5.

Coastal Water Temperatures

Place Temperature
No Stations Reporting

Nearby Weather Stations